Agatti Airport

Current Flights

Departures
Number Departure To Airline
 CD506 10:30 +620  Cochin  Alliance Air
 CD506 10:30  Cochin  Alliance Air
 9I506 10:30  Cochin  Alliance Air
 CD506 10:30  Cochin  Alliance Air
Arrivals
Number Arrival From Airline
 9I505 10:05 +1  Cochin  Alliance Air
 9I505 10:05  Cochin  Alliance Air
 CD505 10:05  Cochin  Alliance Air
Info
Name: Agatti Airport
Identifier:  AGX/VOAT
Local Time:  22. May 20:49
City
Agatti
  India

Flights per Day
2 flights
Distance: 468km (291mi)
Punctuality
94% (0 flights per day delayed)
Delay Average: 11 minutes
Current Weather
 32 C (Humidity: 70%)
  8kt (14km/h / 9mph) from 340°
  Scattered clouds at 1,500 feet (457 meter)
  6km (3 mi.)
No significant changes expected

 METAR VOAT 221130Z 34008KT 6000 SCT015 32/26 Q1006 NOSIG

Current Delays

Departures
N/A
Arrivals
N/A

Destinations

Top Destinations
Airport Flights
per week
Seats
per week
  Cochin (COK) 7 945 1 135

Airlines & Planes

Top Airlines
Airline Flights
per Day
Seats
per Day
  Alliance Air 1 135
Top Plane Types
Manufacturer Model Flights Seats
ATR 76-600 1.9/day 135/day 135.33333333333334